createdAt,value
2019-02-10T00:01:10.261Z,100239.22
2019-02-10T00:03:48.146Z,100237.85
2019-02-10T00:06:24.826Z,100239.47
2019-02-10T00:08:51.232Z,100236.45
2019-02-10T00:11:19.808Z,100241.64
2019-02-10T00:13:48.618Z,100238.66
2019-02-10T00:16:17.547Z,100241.64
2019-02-10T00:18:46.484Z,100244.90
2019-02-10T00:21:15.070Z,100240.55
2019-02-10T00:23:43.655Z,100238.36
2019-02-10T00:26:12.224Z,100245.73
2019-02-10T00:28:42.244Z,100245.72
2019-02-10T00:31:10.840Z,100247.36
2019-02-10T00:33:39.418Z,100253.87
2019-02-10T00:36:07.994Z,100254.16
2019-02-10T00:38:36.595Z,100259.03
2019-02-10T00:41:07.165Z,100254.69
2019-02-10T00:43:35.812Z,100251.13
2019-02-10T00:46:04.403Z,100246.24
2019-02-10T00:48:33.474Z,100244.88
2019-02-10T00:51:02.427Z,100252.77
2019-02-10T00:53:31.062Z,100253.02
2019-02-10T00:55:59.626Z,100251.41
2019-02-10T00:58:28.238Z,100247.05
2019-02-10T01:00:56.795Z,100251.92
2019-02-10T01:03:25.400Z,100248.67
2019-02-10T01:05:53.955Z,100251.38
2019-02-10T01:08:22.635Z,100245.38
2019-02-10T01:10:51.242Z,100236.41
2019-02-10T01:13:19.937Z,100230.43
2019-02-10T01:15:49.939Z,100227.16
2019-02-10T01:18:18.635Z,100229.03
2019-02-10T01:20:47.162Z,100226.05
2019-02-10T01:23:15.808Z,100225.47
2019-02-10T01:25:44.687Z,100225.20
2019-02-10T01:28:13.249Z,100228.98
2019-02-10T01:30:42.611Z,100214.84
2019-02-10T01:33:11.192Z,100218.39
2019-02-10T01:35:39.848Z,100215.11
2019-02-10T01:38:08.433Z,100211.83
2019-02-10T01:40:37.098Z,100214.81
2019-02-10T01:43:05.694Z,100218.86
2019-02-10T01:45:34.266Z,100211.30
2019-02-10T01:48:03.570Z,100210.73
2019-02-10T01:50:32.143Z,100195.55
2019-02-10T01:53:00.751Z,100197.44
2019-02-10T01:55:29.313Z,100196.36
2019-02-10T01:57:57.852Z,100191.17
2019-02-10T02:00:26.414Z,100187.92
2019-02-10T02:02:55.433Z,100186.02
2019-02-10T02:05:24.072Z,100179.48
2019-02-10T02:07:52.639Z,100183.31
2019-02-10T02:10:21.238Z,100186.85
2019-02-10T02:12:49.927Z,100183.05
2019-02-10T02:15:18.520Z,100181.95
2019-02-10T02:17:47.111Z,100181.67
2019-02-10T02:20:15.703Z,100173.80
2019-02-10T02:22:44.343Z,100184.64
2019-02-10T02:25:13.221Z,100172.15
2019-02-10T02:27:42.335Z,100179.23
2019-02-10T02:30:13.472Z,100176.22
2019-02-10T02:32:42.477Z,100176.23
2019-02-10T02:35:11.225Z,100176.50
2019-02-10T02:37:39.881Z,100164.30
2019-02-10T02:40:12.078Z,100162.66
2019-02-10T02:42:40.961Z,100158.04
2019-02-10T02:45:11.544Z,100162.66
2019-02-10T02:47:40.647Z,100156.69
2019-02-10T02:50:12.427Z,100162.94
2019-02-10T02:52:41.148Z,100156.95
2019-02-10T02:55:10.616Z,100149.67
2019-02-10T02:57:39.260Z,100139.32
2019-02-10T03:00:10.335Z,100134.16
2019-02-10T03:02:38.897Z,100127.36
2019-02-10T03:05:11.021Z,100126.01
2019-02-10T03:07:39.644Z,100127.91
2019-02-10T03:10:09.280Z,100118.94
2019-02-10T03:12:37.929Z,100122.45
2019-02-10T03:15:10.313Z,100124.64
2019-02-10T03:17:38.988Z,100122.20
2019-02-10T03:20:09.341Z,100118.66
2019-02-10T03:22:38.056Z,100113.75
2019-02-10T03:25:07.736Z,100111.58
2019-02-10T03:27:36.342Z,100101.52
2019-02-10T03:30:07.827Z,100100.43
2019-02-10T03:32:36.438Z,100095.25
2019-02-10T03:35:07.162Z,100097.66
2019-02-10T03:37:35.903Z,100088.98
2019-02-10T03:40:06.390Z,100095.47
2019-02-10T03:42:35.056Z,100099.55
2019-02-10T03:45:04.402Z,100091.95
2019-02-10T03:47:33.054Z,100092.75
2019-02-10T03:50:01.821Z,100094.64
2019-02-10T03:52:30.460Z,100084.05
2019-02-10T03:54:58.988Z,100086.21
2019-02-10T03:57:27.580Z,100077.78
2019-02-10T03:59:56.200Z,100075.59
2019-02-10T04:02:25.550Z,100073.45
2019-02-10T04:04:54.173Z,100070.98
2019-02-10T04:07:22.834Z,100066.66
2019-02-10T04:09:51.509Z,100064.20
2019-02-10T04:12:20.122Z,100063.64
2019-02-10T04:14:48.707Z,100066.64
2019-02-10T04:17:17.479Z,100054.45
2019-02-10T04:19:46.085Z,100054.43
2019-02-10T04:22:14.669Z,100050.11
2019-02-10T04:24:43.755Z,100052.83
2019-02-10T04:27:12.607Z,100049.59
2019-02-10T04:29:41.220Z,100048.76
2019-02-10T04:32:09.798Z,100049.59
2019-02-10T04:34:38.396Z,100043.05
2019-02-10T04:37:06.907Z,100053.64
2019-02-10T04:39:35.568Z,100044.96
2019-02-10T04:42:04.128Z,100040.87
2019-02-10T04:44:32.682Z,100042.22
2019-02-10T04:47:01.210Z,100035.44
2019-02-10T04:49:29.906Z,100032.98
2019-02-10T04:51:58.472Z,100027.84
2019-02-10T04:54:27.384Z,100025.15
2019-02-10T04:56:55.892Z,100018.61
2019-02-10T04:59:24.564Z,100015.09
2019-02-10T05:01:53.118Z,100005.63
2019-02-10T05:04:21.709Z,100006.41
2019-02-10T05:06:50.272Z,100007.00
2019-02-10T05:09:18.872Z,99999.12
2019-02-10T05:11:47.438Z,99999.66
2019-02-10T05:14:16.039Z,100002.13
2019-02-10T05:16:45.005Z,99987.20
2019-02-10T05:19:13.738Z,99976.87
2019-02-10T05:21:42.281Z,99976.33
2019-02-10T05:24:11.097Z,99970.63
2019-02-10T05:26:39.581Z,99972.30
2019-02-10T05:29:08.258Z,99972.30
2019-02-10T05:31:36.819Z,99967.68
2019-02-10T05:34:05.419Z,99957.34
2019-02-10T05:36:35.100Z,99950.30
2019-02-10T05:39:04.650Z,99954.38
2019-02-10T05:41:33.183Z,99938.34
2019-02-10T05:44:01.774Z,99941.33
2019-02-10T05:46:30.368Z,99933.20
2019-02-10T05:48:58.981Z,99928.57
2019-02-10T05:51:27.541Z,99920.72
2019-02-10T05:53:56.157Z,99921.25
2019-02-10T05:56:24.724Z,99907.66
2019-02-10T05:58:53.424Z,99900.59
2019-02-10T06:01:56.962Z,99902.20
2019-02-10T06:04:25.592Z,99893.25
2019-02-10T06:06:57.115Z,99887.25
2019-02-10T06:09:25.941Z,99882.34
2019-02-10T06:11:54.500Z,99881.80
2019-02-10T06:14:23.439Z,99877.46
2019-02-10T06:16:51.974Z,99879.89
2019-02-10T06:19:20.575Z,99875.27
2019-02-10T06:21:49.154Z,99870.91
2019-02-10T06:24:18.010Z,99868.17
2019-02-10T06:26:46.640Z,99858.94
2019-02-10T06:29:15.316Z,99855.38
2019-02-10T06:31:43.827Z,99843.99
2019-02-10T06:34:12.461Z,99845.62
2019-02-10T06:36:41.083Z,99843.15
2019-02-10T06:39:09.745Z,99835.55
2019-02-10T06:41:38.340Z,99842.06
2019-02-10T06:44:07.289Z,99837.70
2019-02-10T06:46:35.979Z,99843.11
2019-02-10T06:49:04.550Z,99844.20
2019-02-10T06:51:33.069Z,99842.54
2019-02-10T06:54:01.666Z,99830.33
2019-02-10T06:56:30.272Z,99833.03
2019-02-10T06:58:59.125Z,99832.18
2019-02-10T07:01:31.785Z,99815.33
2019-02-10T07:04:04.139Z,99810.95
2019-02-10T07:06:32.720Z,99804.13
2019-02-10T07:09:01.603Z,99806.27
2019-02-10T07:11:30.263Z,99800.52
2019-02-10T07:13:59.505Z,99794.19
2019-02-10T07:16:36.930Z,99784.67
2019-02-10T07:19:34.521Z,99787.39
2019-02-10T07:22:32.198Z,99777.84
2019-02-10T07:25:15.913Z,99780.52
2019-02-10T07:28:03.056Z,99777.52
2019-02-10T07:30:46.632Z,99771.50
2019-02-10T07:33:21.039Z,99756.77
2019-02-10T07:36:15.047Z,99754.58
2019-02-10T07:39:01.973Z,99736.08
2019-02-10T07:41:45.636Z,99727.36
2019-02-10T07:44:44.051Z,99715.34
2019-02-10T07:47:16.105Z,99725.14
2019-02-10T07:50:00.014Z,99715.84
2019-02-10T07:52:37.581Z,99723.67
2019-02-10T07:55:20.678Z,99724.44
2019-02-10T07:58:04.307Z,99715.73
2019-02-10T08:00:48.055Z,99700.11
2019-02-10T08:03:25.773Z,99694.66
2019-02-10T08:06:00.317Z,99692.98
2019-02-10T08:08:50.426Z,99694.88
2019-02-10T08:11:25.053Z,99692.70
2019-02-10T08:14:08.746Z,99680.23
2019-02-10T08:16:44.238Z,99676.48
2019-02-10T08:19:24.666Z,99662.66
2019-02-10T08:22:13.042Z,99666.47
2019-02-10T08:24:51.110Z,99658.86
2019-02-10T08:27:37.483Z,99655.34
2019-02-10T08:30:30.199Z,99642.52
2019-02-10T08:33:17.191Z,99629.51
2019-02-10T08:36:09.450Z,99628.97
2019-02-10T08:38:54.593Z,99627.01
2019-02-10T08:41:35.273Z,99608.50
2019-02-10T08:44:24.824Z,99601.68
2019-02-10T08:47:05.476Z,99586.71
2019-02-10T08:49:51.912Z,99572.88
2019-02-10T08:52:29.509Z,99556.14
2019-02-10T08:54:59.031Z,99542.27
2019-02-10T08:57:28.539Z,99527.36
2019-02-10T08:59:57.233Z,99527.91
2019-02-10T09:02:25.779Z,99524.19
2019-02-10T09:04:54.376Z,99519.53
2019-02-10T09:07:22.942Z,99508.48
2019-02-10T09:10:02.565Z,99499.02
2019-02-10T09:12:31.170Z,99483.00
2019-02-10T09:14:59.906Z,99477.33
2019-02-10T09:17:28.693Z,99467.49
2019-02-10T09:19:57.223Z,99446.66
2019-02-10T09:22:26.238Z,99440.64
2019-02-10T09:24:55.223Z,99429.22
2019-02-10T09:27:23.792Z,99421.85
2019-02-10T09:29:52.401Z,99409.38
2019-02-10T09:32:21.115Z,99401.74
2019-02-10T09:34:49.643Z,99392.48
2019-02-10T09:37:18.362Z,99390.31
2019-02-10T09:39:46.928Z,99378.91
2019-02-10T09:42:15.522Z,99362.31
2019-02-10T09:44:44.098Z,99356.05
2019-02-10T09:47:13.080Z,99348.97
2019-02-10T09:49:41.731Z,99330.27
2019-02-10T09:52:10.365Z,99332.03
2019-02-10T09:54:49.697Z,99336.32
2019-02-10T09:57:18.291Z,99320.87
2019-02-10T09:59:46.831Z,99312.31
2019-02-10T10:02:15.424Z,99312.63
2019-02-10T10:04:43.941Z,99307.69
2019-02-10T10:07:12.623Z,99293.27
2019-02-10T10:09:41.164Z,99276.87
2019-02-10T10:12:09.784Z,99275.22
2019-02-10T10:14:38.339Z,99262.72
2019-02-10T10:17:07.348Z,99250.53
2019-02-10T10:19:36.237Z,99247.81
2019-02-10T10:22:04.923Z,99226.77
2019-02-10T10:24:34.772Z,99221.56
2019-02-10T10:27:03.456Z,99215.28
2019-02-10T10:29:32.038Z,99214.97
2019-02-10T10:32:00.711Z,99195.63
2019-02-10T10:34:29.378Z,99167.88
2019-02-10T10:36:58.203Z,99183.81
2019-02-10T10:39:27.627Z,99173.41
2019-02-10T10:41:56.444Z,99149.57
2019-02-10T10:44:25.043Z,99144.84
2019-02-10T10:46:53.738Z,99138.49
2019-02-10T10:49:22.301Z,99132.95
2019-02-10T10:51:50.910Z,99123.75
2019-02-10T10:54:19.468Z,99102.42
2019-02-10T10:56:48.074Z,99099.89
2019-02-10T10:59:16.696Z,99080.55
2019-02-10T11:01:45.852Z,99081.17
2019-02-10T11:04:14.415Z,99081.62
2019-02-10T11:06:43.022Z,99075.51
2019-02-10T11:09:11.603Z,99068.84
2019-02-10T11:11:40.187Z,99057.41
2019-02-10T11:14:08.728Z,99047.72
2019-02-10T11:16:37.289Z,99051.43
2019-02-10T11:19:06.245Z,99038.50
2019-02-10T11:21:34.844Z,99031.88
2019-02-10T11:24:03.470Z,99012.00
2019-02-10T11:26:32.113Z,99022.22
2019-02-10T11:29:01.138Z,99010.39
2019-02-10T11:31:30.031Z,98996.97
2019-02-10T11:33:58.789Z,99003.10
2019-02-10T11:36:27.443Z,98979.44
2019-02-10T11:38:56.047Z,98977.39
2019-02-10T11:41:24.705Z,98966.23
2019-02-10T11:43:53.264Z,98967.09
2019-02-10T11:46:21.814Z,98965.17
2019-02-10T11:48:50.378Z,98942.13
2019-02-10T11:51:19.049Z,98946.97
2019-02-10T11:53:47.613Z,98939.21
2019-02-10T11:56:16.304Z,98934.31
2019-02-10T11:58:44.801Z,98932.87
2019-02-10T12:01:13.360Z,98921.91
2019-02-10T12:03:41.887Z,98920.46
2019-02-10T12:06:10.452Z,98910.70
2019-02-10T12:08:38.988Z,98908.75
2019-02-10T12:11:07.913Z,98906.36
2019-02-10T12:13:38.612Z,98902.69
2019-02-10T12:16:07.077Z,98899.16
2019-02-10T12:18:36.095Z,98891.62
2019-02-10T12:21:04.672Z,98886.02
2019-02-10T12:23:33.214Z,98875.34
2019-02-10T12:26:01.779Z,98874.64
2019-02-10T12:28:30.304Z,98872.55
2019-02-10T12:30:58.893Z,98867.72
2019-02-10T12:33:27.417Z,98845.03
2019-02-10T12:35:58.418Z,98832.77
2019-02-10T12:38:26.317Z,98836.45
2019-02-10T12:40:55.326Z,98837.27
2019-02-10T12:43:24.340Z,98826.05
2019-02-10T12:45:52.888Z,98821.71
2019-02-10T12:48:23.980Z,98814.40
2019-02-10T12:50:52.351Z,98807.42
2019-02-10T12:53:20.927Z,98802.88
2019-02-10T12:55:49.517Z,98794.70
2019-02-10T12:58:18.063Z,98795.72
2019-02-10T13:00:46.690Z,98780.02
2019-02-10T13:03:15.545Z,98777.70
2019-02-10T13:05:44.192Z,98765.17
2019-02-10T13:08:12.747Z,98766.39
2019-02-10T13:10:41.391Z,98759.41
2019-02-10T13:13:10.048Z,98750.77
2019-02-10T13:15:38.715Z,98744.91
2019-02-10T13:18:08.371Z,98737.29
2019-02-10T13:20:36.965Z,98736.88
2019-02-10T13:23:05.624Z,98733.35
2019-02-10T13:25:34.335Z,98719.66
2019-02-10T13:28:02.903Z,98716.92
2019-02-10T13:30:31.520Z,98713.73
2019-02-10T13:33:00.197Z,98702.81
2019-02-10T13:35:28.786Z,98707.78
2019-02-10T13:37:57.398Z,98696.95
2019-02-10T13:40:26.048Z,98692.61
2019-02-10T13:42:54.610Z,98692.52
2019-02-10T13:45:23.177Z,98684.13
2019-02-10T13:47:51.795Z,98683.94
2019-02-10T13:50:21.215Z,98687.23
2019-02-10T13:52:50.732Z,98678.48
2019-02-10T13:55:19.394Z,98678.98
2019-02-10T13:57:47.942Z,98676.66
2019-02-10T14:00:24.500Z,98670.14
2019-02-10T14:02:53.113Z,98662.86
2019-02-10T14:05:21.697Z,98662.61
2019-02-10T14:07:51.287Z,98660.37
2019-02-10T14:10:25.780Z,98659.89
2019-02-10T14:12:50.453Z,98650.59
2019-02-10T14:15:20.328Z,98637.66
2019-02-10T14:17:48.931Z,98629.02
2019-02-10T14:20:19.115Z,98639.02
2019-02-10T14:22:47.677Z,98641.36
2019-02-10T14:25:16.609Z,98632.69
2019-02-10T14:27:45.163Z,98628.77
2019-02-10T14:30:17.116Z,98623.21
2019-02-10T14:32:46.046Z,98626.29
2019-02-10T14:35:14.704Z,98620.17
2019-02-10T14:37:43.461Z,98614.02
2019-02-10T14:40:12.554Z,98610.23
2019-02-10T14:42:41.251Z,98608.07
2019-02-10T14:45:13.014Z,98608.56
2019-02-10T14:47:41.850Z,98603.31
2019-02-10T14:50:13.483Z,98591.87
2019-02-10T14:52:42.508Z,98592.83
2019-02-10T14:55:11.045Z,98585.45
2019-02-10T14:57:39.909Z,98586.25
2019-02-10T15:00:11.999Z,98585.13
2019-02-10T15:02:40.582Z,98580.87
2019-02-10T15:05:11.518Z,98577.27
2019-02-10T15:07:43.530Z,98575.59
2019-02-10T15:10:14.391Z,98566.84
2019-02-10T15:12:43.044Z,98560.28
2019-02-10T15:15:12.037Z,98558.42
2019-02-10T15:17:40.594Z,98556.56
2019-02-10T15:20:10.907Z,98549.19
2019-02-10T15:22:39.580Z,98542.38
2019-02-10T15:25:12.684Z,98528.59
2019-02-10T15:27:41.268Z,98528.11
2019-02-10T15:30:12.874Z,98528.04
2019-02-10T15:32:41.557Z,98515.77
2019-02-10T15:35:12.544Z,98513.28
2019-02-10T15:37:41.198Z,98514.41
2019-02-10T15:40:11.846Z,98510.55
2019-02-10T15:42:40.654Z,98503.95
2019-02-10T15:45:14.508Z,98498.84
2019-02-10T15:47:43.721Z,98496.12
2019-02-10T15:50:13.590Z,98485.53
2019-02-10T15:52:42.218Z,98483.84
2019-02-10T15:55:13.063Z,98480.63
2019-02-10T15:57:42.246Z,98480.71
2019-02-10T16:00:25.685Z,98476.55
2019-02-10T16:02:54.350Z,98475.73
2019-02-10T16:05:22.867Z,98468.73
2019-02-10T16:07:51.459Z,98462.24
2019-02-10T16:10:20.064Z,98458.63
2019-02-10T16:12:48.797Z,98458.39
2019-02-10T16:15:17.775Z,98450.77
2019-02-10T16:17:46.400Z,98452.48
2019-02-10T16:20:15.584Z,98444.44
2019-02-10T16:22:44.294Z,98442.83
2019-02-10T16:25:13.327Z,98435.38
2019-02-10T16:27:41.925Z,98433.59
2019-02-10T16:30:15.209Z,98434.28
2019-02-10T16:32:49.596Z,98431.87
2019-02-10T16:35:14.234Z,98426.77
2019-02-10T16:37:42.803Z,98414.19
2019-02-10T16:40:14.586Z,98419.09
2019-02-10T16:42:43.300Z,98422.86
2019-02-10T16:45:13.069Z,98411.62
2019-02-10T16:47:41.644Z,98407.42
2019-02-10T16:50:13.353Z,98415.66
2019-02-10T16:52:41.966Z,98413.73
2019-02-10T16:55:17.078Z,98408.91
2019-02-10T16:57:45.689Z,98407.52
2019-02-10T17:00:15.845Z,98406.02
2019-02-10T17:02:44.478Z,98400.37
2019-02-10T17:05:13.680Z,98397.77
2019-02-10T17:07:42.280Z,98391.39
2019-02-10T17:10:21.127Z,98400.63
2019-02-10T17:12:50.973Z,98390.83
2019-02-10T17:15:19.559Z,98391.08
2019-02-10T17:17:48.262Z,98384.73
2019-02-10T17:20:16.890Z,98384.05
2019-02-10T17:22:45.715Z,98382.92
2019-02-10T17:25:26.494Z,98392.72
2019-02-10T17:27:55.209Z,98392.39
2019-02-10T17:30:23.810Z,98388.19
2019-02-10T17:32:52.392Z,98387.74
2019-02-10T17:35:21.379Z,98388.22
2019-02-10T17:37:50.050Z,98388.78
2019-02-10T17:40:24.299Z,98392.35
2019-02-10T17:42:53.009Z,98384.08
2019-02-10T17:45:41.662Z,98387.13
2019-02-10T17:48:10.301Z,98389.72
2019-02-10T17:50:39.146Z,98394.50
2019-02-10T17:53:07.768Z,98390.64
2019-02-10T17:55:36.336Z,98377.55
2019-02-10T17:58:05.361Z,98386.13
2019-02-10T18:00:35.586Z,98395.25
2019-02-10T18:03:04.603Z,98398.54
2019-02-10T18:05:33.163Z,98392.19
2019-02-10T18:08:01.870Z,98390.02
2019-02-10T18:10:30.538Z,98392.27
2019-02-10T18:12:59.628Z,98397.11
2019-02-10T18:15:46.074Z,98396.09
2019-02-10T18:18:31.329Z,98405.66
2019-02-10T18:21:25.096Z,98406.58
2019-02-10T18:24:11.511Z,98399.87
2019-02-10T18:26:44.680Z,98410.61
2019-02-10T18:29:36.594Z,98399.87
2019-02-10T18:32:14.770Z,98405.23
2019-02-10T18:35:02.096Z,98405.94
2019-02-10T18:37:35.311Z,98409.48
2019-02-10T18:40:10.231Z,98417.89
2019-02-10T18:42:43.220Z,98423.82
2019-02-10T18:45:31.823Z,98432.73
2019-02-10T18:48:04.648Z,98438.23
2019-02-10T18:50:41.175Z,98444.73
2019-02-10T18:53:27.635Z,98444.23
2019-02-10T18:56:13.889Z,98453.47
2019-02-10T18:58:44.056Z,98457.30
2019-02-10T19:01:26.600Z,98461.28
2019-02-10T19:04:15.212Z,98461.07
2019-02-10T19:06:48.547Z,98458.42
2019-02-10T19:09:21.811Z,98454.89
2019-02-10T19:11:52.522Z,98456.94
2019-02-10T19:14:25.447Z,98455.45
2019-02-10T19:17:01.749Z,98459.11
2019-02-10T19:19:32.015Z,98456.70
2019-02-10T19:22:02.329Z,98454.86
2019-02-10T19:24:44.648Z,98454.61
2019-02-10T19:27:21.089Z,98460.20
2019-02-10T19:29:55.180Z,98464.13
2019-02-10T19:32:25.462Z,98454.30
2019-02-10T19:35:10.703Z,98460.08
2019-02-10T19:37:49.905Z,98460.64
2019-02-10T19:40:25.974Z,98465.94
2019-02-10T19:43:13.241Z,98469.28
2019-02-10T19:45:43.477Z,98453.37
2019-02-10T19:48:25.287Z,98453.27
2019-02-10T19:51:00.981Z,98461.84
2019-02-10T19:53:40.246Z,98468.84
2019-02-10T19:56:10.887Z,98471.33
2019-02-10T19:58:59.082Z,98468.31
2019-02-10T20:01:45.719Z,98469.03
2019-02-10T20:04:16.096Z,98473.32
2019-02-10T20:07:01.535Z,98470.39
2019-02-10T20:09:35.025Z,98456.70
2019-02-10T20:12:21.380Z,98465.41
2019-02-10T20:14:58.104Z,98463.67
2019-02-10T20:17:34.055Z,98458.09
2019-02-10T20:20:07.531Z,98459.58
2019-02-10T20:22:53.844Z,98464.92
2019-02-10T20:25:39.382Z,98465.73
2019-02-10T20:28:12.422Z,98477.69
2019-02-10T20:30:48.593Z,98476.81
2019-02-10T20:33:21.567Z,98478.38
2019-02-10T20:35:51.878Z,98478.02
2019-02-10T20:38:22.534Z,98488.69
2019-02-10T20:40:59.375Z,98475.84
2019-02-10T20:43:44.650Z,98456.00
2019-02-10T20:46:18.702Z,98451.83
2019-02-10T20:48:49.032Z,98468.77
2019-02-10T20:51:35.679Z,98478.20
2019-02-10T20:54:06.350Z,98486.88
2019-02-10T20:56:39.519Z,98497.36
2019-02-10T20:59:25.911Z,98500.97
2019-02-10T21:02:05.251Z,98505.30
2019-02-10T21:04:35.506Z,98509.56
2019-02-10T21:07:12.060Z,98495.32
2019-02-10T21:09:58.807Z,98493.94
2019-02-10T21:12:29.120Z,98493.50
2019-02-10T21:14:59.287Z,98493.03
2019-02-10T21:17:41.569Z,98492.58
2019-02-10T21:20:14.203Z,98491.77
2019-02-10T21:22:47.252Z,98494.02
2019-02-10T21:25:33.526Z,98502.77
2019-02-10T21:28:09.499Z,98508.09
2019-02-10T21:30:45.558Z,98503.14
2019-02-10T21:33:15.872Z,98503.94
2019-02-10T21:35:55.017Z,98503.51
2019-02-10T21:38:25.690Z,98519.62
2019-02-10T21:40:55.969Z,98516.17
2019-02-10T21:43:42.640Z,98523.37
2019-02-10T21:46:13.002Z,98511.81
2019-02-10T21:48:43.302Z,98514.73
2019-02-10T21:51:11.964Z,98513.49
2019-02-10T21:53:40.538Z,98494.13
2019-02-10T21:56:09.157Z,98499.98
2019-02-10T21:58:37.696Z,98501.48
2019-02-10T22:01:06.409Z,98498.58
2019-02-10T22:03:34.964Z,98501.73
2019-02-10T22:06:03.996Z,98496.70
2019-02-10T22:08:32.639Z,98500.53
2019-02-10T22:11:01.221Z,98502.77
2019-02-10T22:13:29.814Z,98496.23
2019-02-10T22:15:58.426Z,98494.00
2019-02-10T22:18:26.960Z,98495.92
2019-02-10T22:20:55.579Z,98502.27
2019-02-10T22:23:24.230Z,98502.27
2019-02-10T22:25:52.850Z,98501.70
2019-02-10T22:28:21.522Z,98514.91
2019-02-10T22:30:50.114Z,98514.98
2019-02-10T22:33:19.102Z,98514.98
2019-02-10T22:35:47.690Z,98512.66
2019-02-10T22:38:16.282Z,98516.98
2019-02-10T22:40:44.854Z,98512.44
2019-02-10T22:43:13.424Z,98522.02
2019-02-10T22:45:42.438Z,98519.94
2019-02-10T22:48:11.000Z,98520.17
2019-02-10T22:50:39.705Z,98526.53
2019-02-10T22:53:08.266Z,98524.53
2019-02-10T22:55:36.833Z,98525.41
2019-02-10T22:58:05.453Z,98537.19
2019-02-10T23:00:52.664Z,98511.76
2019-02-10T23:03:21.301Z,98518.11
2019-02-10T23:05:50.043Z,98508.89
2019-02-10T23:08:18.704Z,98512.59
2019-02-10T23:10:47.293Z,98491.66
2019-02-10T23:13:16.354Z,98494.95
2019-02-10T23:15:44.877Z,98503.75
2019-02-10T23:18:13.494Z,98496.20
2019-02-10T23:20:42.058Z,98501.76
2019-02-10T23:23:10.727Z,98492.53
2019-02-10T23:25:39.324Z,98485.72
2019-02-10T23:28:08.210Z,98492.92
2019-02-10T23:30:36.802Z,98488.30
2019-02-10T23:33:05.357Z,98497.35
2019-02-10T23:35:33.966Z,98494.70
2019-02-10T23:38:02.949Z,98500.15
2019-02-10T23:40:31.590Z,98506.23
2019-02-10T23:43:02.081Z,98511.08
2019-02-10T23:45:30.750Z,98533.84
2019-02-10T23:47:59.339Z,98528.41
2019-02-10T23:50:27.945Z,98520.94
2019-02-10T23:52:56.597Z,98544.38
2019-02-10T23:55:25.173Z,98534.91
2019-02-10T23:57:53.772Z,98537.28
